sensor_id;sensor_type;location;lat;lon;timestamp;pressure;altitude;pressure_sealevel;temperature;humidity
10518;BME280;5307;42.548;22.968;2023-05-12T00:01:05;94064.78;;;9.78;100.00
10518;BME280;5307;42.548;22.968;2023-05-12T00:03:34;94059.53;;;9.84;100.00
10518;BME280;5307;42.548;22.968;2023-05-12T00:06:01;94056.16;;;9.93;100.00
10518;BME280;5307;42.548;22.968;2023-05-12T00:08:29;94060.22;;;9.88;100.00
10518;BME280;5307;42.548;22.968;2023-05-12T00:10:55;94059.22;;;9.95;100.00
10518;BME280;5307;42.548;22.968;2023-05-12T00:13:22;94058.34;;;9.85;100.00
10518;BME280;5307;42.548;22.968;2023-05-12T00:15:50;94051.28;;;9.88;100.00
10518;BME280;5307;42.548;22.968;2023-05-12T00:18:19;94054.00;;;9.88;100.00
10518;BME280;5307;42.548;22.968;2023-05-12T00:20:47;94054.75;;;9.88;100.00
10518;BME280;5307;42.548;22.968;2023-05-12T00:23:14;94058.13;;;9.79;100.00
10518;BME280;5307;42.548;22.968;2023-05-12T00:25:40;94055.97;;;9.74;100.00
10518;BME280;5307;42.548;22.968;2023-05-12T00:28:07;94054.31;;;9.77;100.00
10518;BME280;5307;42.548;22.968;2023-05-12T00:30:34;94049.06;;;9.70;100.00
10518;BME280;5307;42.548;22.968;2023-05-12T00:33:01;94038.50;;;9.72;100.00
10518;BME280;5307;42.548;22.968;2023-05-12T00:35:28;94050.72;;;9.80;100.00
10518;BME280;5307;42.548;22.968;2023-05-12T00:37:56;94051.03;;;9.82;100.00
10518;BME280;5307;42.548;22.968;2023-05-12T00:40:23;94048.88;;;9.77;100.00
10518;BME280;5307;42.548;22.968;2023-05-12T00:42:50;94054.44;;;9.61;100.00
10518;BME280;5307;42.548;22.968;2023-05-12T00:45:17;94044.28;;;9.61;100.00
10518;BME280;5307;42.548;22.968;2023-05-12T00:47:44;94052.34;;;9.65;100.00
10518;BME280;5307;42.548;22.968;2023-05-12T00:50:11;94056.06;;;9.71;100.00
10518;BME280;5307;42.548;22.968;2023-05-12T00:52:38;94048.88;;;9.64;100.00
10518;BME280;5307;42.548;22.968;2023-05-12T00:55:07;94065.97;;;9.52;100.00
10518;BME280;5307;42.548;22.968;2023-05-12T00:57:34;94047.66;;;9.65;100.00
10518;BME280;5307;42.548;22.968;2023-05-12T01:00:01;94060.09;;;9.53;100.00
10518;BME280;5307;42.548;22.968;2023-05-12T01:02:29;94056.41;;;9.60;100.00
10518;BME280;5307;42.548;22.968;2023-05-12T01:04:56;94059.88;;;9.61;100.00
10518;BME280;5307;42.548;22.968;2023-05-12T01:07:24;94058.56;;;9.65;100.00
10518;BME280;5307;42.548;22.968;2023-05-12T01:09:54;94062.38;;;9.68;100.00
10518;BME280;5307;42.548;22.968;2023-05-12T01:12:23;94051.25;;;9.49;100.00
10518;BME280;5307;42.548;22.968;2023-05-12T01:14:52;94059.75;;;9.51;100.00
10518;BME280;5307;42.548;22.968;2023-05-12T01:17:22;94048.53;;;9.49;100.00
10518;BME280;5307;42.548;22.968;2023-05-12T01:19:55;94053.09;;;9.40;100.00
10518;BME280;5307;42.548;22.968;2023-05-12T01:22:23;94052.78;;;9.50;100.00
10518;BME280;5307;42.548;22.968;2023-05-12T01:24:53;94055.19;;;9.48;100.00
10518;BME280;5307;42.548;22.968;2023-05-12T01:27:22;94045.56;;;9.31;100.00
10518;BME280;5307;42.548;22.968;2023-05-12T01:29:52;94052.63;;;9.29;100.00
10518;BME280;5307;42.548;22.968;2023-05-12T01:32:20;94061.00;;;9.09;100.00
10518;BME280;5307;42.548;22.968;2023-05-12T01:34:47;94054.38;;;9.22;100.00
10518;BME280;5307;42.548;22.968;2023-05-12T01:37:15;94060.44;;;9.14;100.00
10518;BME280;5307;42.548;22.968;2023-05-12T01:39:42;94062.53;;;9.10;100.00
10518;BME280;5307;42.548;22.968;2023-05-12T01:42:09;94054.28;;;9.26;100.00
10518;BME280;5307;42.548;22.968;2023-05-12T01:44:37;94055.06;;;9.39;100.00
10518;BME280;5307;42.548;22.968;2023-05-12T01:47:04;94053.84;;;9.15;100.00
10518;BME280;5307;42.548;22.968;2023-05-12T01:49:34;94057.06;;;9.10;100.00
10518;BME280;5307;42.548;22.968;2023-05-12T01:52:01;94042.47;;;9.04;100.00
10518;BME280;5307;42.548;22.968;2023-05-12T01:54:27;94048.97;;;8.93;100.00
10518;BME280;5307;42.548;22.968;2023-05-12T01:56:54;94044.91;;;8.85;100.00
10518;BME280;5307;42.548;22.968;2023-05-12T01:59:21;94041.50;;;9.10;100.00
10518;BME280;5307;42.548;22.968;2023-05-12T02:01:49;94049.50;;;8.88;100.00
10518;BME280;5307;42.548;22.968;2023-05-12T02:04:16;94061.78;;;9.22;100.00
10518;BME280;5307;42.548;22.968;2023-05-12T02:06:43;94055.50;;;9.38;100.00
10518;BME280;5307;42.548;22.968;2023-05-12T02:09:10;94049.38;;;9.21;100.00
10518;BME280;5307;42.548;22.968;2023-05-12T02:11:37;94055.38;;;9.16;100.00
10518;BME280;5307;42.548;22.968;2023-05-12T02:14:04;94053.22;;;8.95;100.00
10518;BME280;5307;42.548;22.968;2023-05-12T02:16:31;94050.88;;;9.09;100.00
10518;BME280;5307;42.548;22.968;2023-05-12T02:18:59;94057.84;;;9.10;100.00
10518;BME280;5307;42.548;22.968;2023-05-12T02:21:25;94062.53;;;9.10;100.00
10518;BME280;5307;42.548;22.968;2023-05-12T02:23:52;94053.38;;;9.04;100.00
10518;BME280;5307;42.548;22.968;2023-05-12T02:26:20;94059.22;;;8.89;100.00
10518;BME280;5307;42.548;22.968;2023-05-12T02:28:47;94048.66;;;8.91;100.00
10518;BME280;5307;42.548;22.968;2023-05-12T02:31:14;94045.84;;;9.08;100.00
10518;BME280;5307;42.548;22.968;2023-05-12T02:33:40;94055.06;;;8.98;100.00
10518;BME280;5307;42.548;22.968;2023-05-12T02:36:09;94048.88;;;8.97;100.00
10518;BME280;5307;42.548;22.968;2023-05-12T02:38:36;94042.88;;;8.89;100.00
10518;BME280;5307;42.548;22.968;2023-05-12T02:41:04;94044.66;;;9.09;100.00
10518;BME280;5307;42.548;22.968;2023-05-12T02:43:31;94047.03;;;9.07;100.00
10518;BME280;5307;42.548;22.968;2023-05-12T02:45:58;94048.16;;;9.22;100.00
10518;BME280;5307;42.548;22.968;2023-05-12T02:48:24;94055.13;;;9.10;100.00
10518;BME280;5307;42.548;22.968;2023-05-12T02:50:51;94060.53;;;8.98;100.00
10518;BME280;5307;42.548;22.968;2023-05-12T02:53:20;94059.00;;;8.97;100.00
10518;BME280;5307;42.548;22.968;2023-05-12T02:55:47;94051.25;;;8.95;100.00
10518;BME280;5307;42.548;22.968;2023-05-12T02:58:15;94056.81;;;8.91;100.00
10518;BME280;5307;42.548;22.968;2023-05-12T03:00:41;94040.66;;;8.84;100.00
10518;BME280;5307;42.548;22.968;2023-05-12T03:03:08;94057.28;;;9.03;100.00
10518;BME280;5307;42.548;22.968;2023-05-12T03:05:35;94068.03;;;8.93;100.00
10518;BME280;5307;42.548;22.968;2023-05-12T03:08:02;94067.72;;;8.91;100.00
10518;BME280;5307;42.548;22.968;2023-05-12T03:10:30;94061.44;;;8.78;100.00
10518;BME280;5307;42.548;22.968;2023-05-12T03:12:57;94063.19;;;8.56;100.00
10518;BME280;5307;42.548;22.968;2023-05-12T03:15:23;94068.59;;;8.72;100.00
10518;BME280;5307;42.548;22.968;2023-05-12T03:17:50;94065.13;;;8.72;100.00
10518;BME280;5307;42.548;22.968;2023-05-12T03:20:17;94072.38;;;8.62;100.00
10518;BME280;5307;42.548;22.968;2023-05-12T03:22:44;94056.28;;;8.39;100.00
10518;BME280;5307;42.548;22.968;2023-05-12T03:25:11;94065.66;;;8.67;100.00
10518;BME280;5307;42.548;22.968;2023-05-12T03:27:39;94068.59;;;8.72;100.00
10518;BME280;5307;42.548;22.968;2023-05-12T03:30:07;94070.88;;;8.61;100.00
10518;BME280;5307;42.548;22.968;2023-05-12T03:32:35;94067.44;;;8.57;100.00
10518;BME280;5307;42.548;22.968;2023-05-12T03:35:04;94069.50;;;8.53;100.00
10518;BME280;5307;42.548;22.968;2023-05-12T03:37:30;94077.13;;;8.74;100.00
10518;BME280;5307;42.548;22.968;2023-05-12T03:39:57;94058.84;;;8.58;100.00
10518;BME280;5307;42.548;22.968;2023-05-12T03:42:24;94073.38;;;8.68;100.00
10518;BME280;5307;42.548;22.968;2023-05-12T03:44:52;94076.53;;;8.67;100.00
10518;BME280;5307;42.548;22.968;2023-05-12T03:47:19;94081.06;;;8.57;100.00
10518;BME280;5307;42.548;22.968;2023-05-12T03:49:45;94080.47;;;8.66;100.00
10518;BME280;5307;42.548;22.968;2023-05-12T03:52:12;94077.59;;;8.40;100.00
10518;BME280;5307;42.548;22.968;2023-05-12T03:54:39;94077.41;;;8.15;100.00
10518;BME280;5307;42.548;22.968;2023-05-12T03:57:06;94088.72;;;8.62;100.00
10518;BME280;5307;42.548;22.968;2023-05-12T03:59:32;94082.78;;;8.51;100.00
10518;BME280;5307;42.548;22.968;2023-05-12T04:02:00;94086.53;;;8.41;100.00
10518;BME280;5307;42.548;22.968;2023-05-12T04:04:27;94091.28;;;8.53;100.00
10518;BME280;5307;42.548;22.968;2023-05-12T04:06:54;94089.31;;;8.53;100.00
10518;BME280;5307;42.548;22.968;2023-05-12T04:09:21;94091.13;;;8.60;100.00
10518;BME280;5307;42.548;22.968;2023-05-12T04:11:48;94097.19;;;8.35;100.00
10518;BME280;5307;42.548;22.968;2023-05-12T04:14:14;94094.44;;;8.51;100.00
10518;BME280;5307;42.548;22.968;2023-05-12T04:16:41;94095.78;;;8.43;100.00
10518;BME280;5307;42.548;22.968;2023-05-12T04:19:09;94096.56;;;8.44;100.00
10518;BME280;5307;42.548;22.968;2023-05-12T04:21:36;94103.56;;;8.45;100.00
10518;BME280;5307;42.548;22.968;2023-05-12T04:24:04;94099.28;;;8.44;100.00
10518;BME280;5307;42.548;22.968;2023-05-12T04:26:30;94089.34;;;8.37;100.00
10518;BME280;5307;42.548;22.968;2023-05-12T04:28:57;94085.66;;;8.44;100.00
10518;BME280;5307;42.548;22.968;2023-05-12T04:31:24;94089.25;;;8.24;100.00
10518;BME280;5307;42.548;22.968;2023-05-12T04:33:51;94083.66;;;8.48;100.00
10518;BME280;5307;42.548;22.968;2023-05-12T04:36:20;94089.75;;;8.52;100.00
10518;BME280;5307;42.548;22.968;2023-05-12T04:38:47;94106.94;;;8.49;100.00
10518;BME280;5307;42.548;22.968;2023-05-12T04:41:14;94107.63;;;8.53;100.00
10518;BME280;5307;42.548;22.968;2023-05-12T04:43:41;94094.94;;;8.62;100.00
10518;BME280;5307;42.548;22.968;2023-05-12T04:46:08;94107.28;;;8.51;100.00
10518;BME280;5307;42.548;22.968;2023-05-12T04:48:34;94101.84;;;8.51;100.00
10518;BME280;5307;42.548;22.968;2023-05-12T04:51:06;94106.09;;;8.52;100.00
10518;BME280;5307;42.548;22.968;2023-05-12T04:53:34;94101.50;;;8.49;100.00
10518;BME280;5307;42.548;22.968;2023-05-12T04:56:01;94104.56;;;8.51;100.00
10518;BME280;5307;42.548;22.968;2023-05-12T04:58:29;94098.88;;;8.45;100.00
10518;BME280;5307;42.548;22.968;2023-05-12T05:00:56;94112.56;;;8.42;100.00
10518;BME280;5307;42.548;22.968;2023-05-12T05:03:22;94101.66;;;8.09;100.00
10518;BME280;5307;42.548;22.968;2023-05-12T05:05:49;94108.97;;;8.28;100.00
10518;BME280;5307;42.548;22.968;2023-05-12T05:08:16;94098.59;;;8.23;100.00
10518;BME280;5307;42.548;22.968;2023-05-12T05:10:45;94102.25;;;8.33;100.00
10518;BME280;5307;42.548;22.968;2023-05-12T05:13:12;94102.00;;;8.44;100.00
10518;BME280;5307;42.548;22.968;2023-05-12T05:15:39;94109.34;;;8.47;100.00
10518;BME280;5307;42.548;22.968;2023-05-12T05:18:05;94109.34;;;8.47;100.00
10518;BME280;5307;42.548;22.968;2023-05-12T05:20:32;94105.22;;;8.55;100.00
10518;BME280;5307;42.548;22.968;2023-05-12T05:22:59;94110.78;;;8.51;100.00
10518;BME280;5307;42.548;22.968;2023-05-12T05:25:26;94113.66;;;8.44;100.00
10518;BME280;5307;42.548;22.968;2023-05-12T05:27:54;94121.66;;;8.51;100.00
10518;BME280;5307;42.548;22.968;2023-05-12T05:30:22;94126.34;;;8.51;100.00
10518;BME280;5307;42.548;22.968;2023-05-12T05:32:49;94116.97;;;8.52;100.00
10518;BME280;5307;42.548;22.968;2023-05-12T05:35:16;94114.50;;;8.41;100.00
10518;BME280;5307;42.548;22.968;2023-05-12T05:37:43;94123.09;;;8.40;100.00
10518;BME280;5307;42.548;22.968;2023-05-12T05:40:10;94126.47;;;8.27;100.00
10518;BME280;5307;42.548;22.968;2023-05-12T05:42:37;94130.84;;;8.41;100.00
10518;BME280;5307;42.548;22.968;2023-05-12T05:45:07;94120.47;;;8.36;100.00
10518;BME280;5307;42.548;22.968;2023-05-12T05:47:33;94122.06;;;8.33;100.00
10518;BME280;5307;42.548;22.968;2023-05-12T05:50:01;94123.28;;;8.49;100.00
10518;BME280;5307;42.548;22.968;2023-05-12T05:52:28;94125.91;;;8.52;100.00
10518;BME280;5307;42.548;22.968;2023-05-12T05:54:55;94133.22;;;8.55;100.00
10518;BME280;5307;42.548;22.968;2023-05-12T05:57:22;94135.59;;;8.53;100.00
10518;BME280;5307;42.548;22.968;2023-05-12T05:59:52;94130.66;;;8.65;100.00
10518;BME280;5307;42.548;22.968;2023-05-12T06:02:20;94132.28;;;8.62;100.00
10518;BME280;5307;42.548;22.968;2023-05-12T06:04:48;94132.94;;;8.66;100.00
10518;BME280;5307;42.548;22.968;2023-05-12T06:07:15;94142.31;;;8.65;100.00
10518;BME280;5307;42.548;22.968;2023-05-12T06:09:42;94137.53;;;8.69;100.00
10518;BME280;5307;42.548;22.968;2023-05-12T06:12:09;94133.63;;;8.70;100.00
10518;BME280;5307;42.548;22.968;2023-05-12T06:14:36;94142.31;;;8.65;100.00
10518;BME280;5307;42.548;22.968;2023-05-12T06:17:03;94149.13;;;8.73;100.00
10518;BME280;5307;42.548;22.968;2023-05-12T06:19:31;94147.72;;;8.81;100.00
10518;BME280;5307;42.548;22.968;2023-05-12T06:21:58;94141.41;;;8.84;100.00
10518;BME280;5307;42.548;22.968;2023-05-12T06:24:25;94145.34;;;8.83;100.00
10518;BME280;5307;42.548;22.968;2023-05-12T06:26:51;94145.50;;;8.92;100.00
10518;BME280;5307;42.548;22.968;2023-05-12T06:29:18;94155.78;;;8.85;100.00
10518;BME280;5307;42.548;22.968;2023-05-12T06:31:45;94149.16;;;8.86;100.00
10518;BME280;5307;42.548;22.968;2023-05-12T06:34:12;94148.78;;;9.00;100.00
10518;BME280;5307;42.548;22.968;2023-05-12T06:36:40;94142.53;;;8.87;100.00
10518;BME280;5307;42.548;22.968;2023-05-12T06:39:07;94144.41;;;8.90;100.00
10518;BME280;5307;42.548;22.968;2023-05-12T06:41:34;94153.13;;;8.98;100.00
10518;BME280;5307;42.548;22.968;2023-05-12T06:44:01;94158.22;;;9.12;100.00
10518;BME280;5307;42.548;22.968;2023-05-12T06:46:27;94153.06;;;9.01;100.00
10518;BME280;5307;42.548;22.968;2023-05-12T06:48:54;94160.28;;;9.08;100.00
10518;BME280;5307;42.548;22.968;2023-05-12T06:51:21;94158.41;;;9.05;100.00
10518;BME280;5307;42.548;22.968;2023-05-12T06:53:49;94160.88;;;9.28;100.00
10518;BME280;5307;42.548;22.968;2023-05-12T06:56:16;94155.31;;;9.19;100.00
10518;BME280;5307;42.548;22.968;2023-05-12T06:58:43;94161.19;;;9.17;100.00
10518;BME280;5307;42.548;22.968;2023-05-12T07:01:09;94152.97;;;9.05;100.00
10518;BME280;5307;42.548;22.968;2023-05-12T07:03:36;94157.06;;;8.97;100.00
10518;BME280;5307;42.548;22.968;2023-05-12T07:06:03;94156.63;;;9.27;100.00
10518;BME280;5307;42.548;22.968;2023-05-12T07:08:30;94153.63;;;9.38;100.00
10518;BME280;5307;42.548;22.968;2023-05-12T07:11:00;94153.44;;;9.45;100.00
10518;BME280;5307;42.548;22.968;2023-05-12T07:13:27;94155.28;;;9.48;100.00
10518;BME280;5307;42.548;22.968;2023-05-12T07:15:53;94146.84;;;9.42;100.00
10518;BME280;5307;42.548;22.968;2023-05-12T07:18:20;94147.53;;;9.46;100.00
10518;BME280;5307;42.548;22.968;2023-05-12T07:20:47;94149.44;;;9.62;100.00
10518;BME280;5307;42.548;22.968;2023-05-12T07:23:14;94144.31;;;9.77;100.00
10518;BME280;5307;42.548;22.968;2023-05-12T07:25:41;94146.72;;;9.75;100.00
10518;BME280;5307;42.548;22.968;2023-05-12T07:28:09;94142.06;;;9.88;100.00
10518;BME280;5307;42.548;22.968;2023-05-12T07:30:36;94147.97;;;9.99;100.00
10518;BME280;5307;42.548;22.968;2023-05-12T07:33:04;94127.22;;;10.15;100.00
10518;BME280;5307;42.548;22.968;2023-05-12T07:35:31;94142.59;;;10.08;100.00
10518;BME280;5307;42.548;22.968;2023-05-12T07:37:58;94146.31;;;10.15;100.00
10518;BME280;5307;42.548;22.968;2023-05-12T07:40:24;94150.00;;;10.21;100.00
10518;BME280;5307;42.548;22.968;2023-05-12T07:42:51;94139.78;;;10.25;100.00
10518;BME280;5307;42.548;22.968;2023-05-12T07:45:19;94146.19;;;10.18;100.00
10518;BME280;5307;42.548;22.968;2023-05-12T07:47:55;94146.75;;;10.00;100.00
10518;BME280;5307;42.548;22.968;2023-05-12T07:50:22;94135.59;;;10.07;100.00
10518;BME280;5307;42.548;22.968;2023-05-12T07:52:50;94140.63;;;10.09;100.00
10518;BME280;5307;42.548;22.968;2023-05-12T07:55:18;94136.94;;;10.16;100.00
10518;BME280;5307;42.548;22.968;2023-05-12T07:57:45;94134.88;;;10.32;100.00
10518;BME280;5307;42.548;22.968;2023-05-12T08:00:13;94143.81;;;10.33;100.00
10518;BME280;5307;42.548;22.968;2023-05-12T08:02:41;94129.41;;;10.32;100.00
10518;BME280;5307;42.548;22.968;2023-05-12T08:05:09;94144.88;;;10.48;100.00
10518;BME280;5307;42.548;22.968;2023-05-12T08:07:36;94147.59;;;10.10;100.00
10518;BME280;5307;42.548;22.968;2023-05-12T08:10:04;94142.81;;;10.52;100.00
10518;BME280;5307;42.548;22.968;2023-05-12T08:12:32;94140.09;;;10.14;100.00
10518;BME280;5307;42.548;22.968;2023-05-12T08:14:58;94141.50;;;10.06;100.00
10518;BME280;5307;42.548;22.968;2023-05-12T08:17:25;94147.59;;;10.10;100.00
10518;BME280;5307;42.548;22.968;2023-05-12T08:19:54;94143.47;;;10.44;100.00
10518;BME280;5307;42.548;22.968;2023-05-12T08:22:20;94133.63;;;10.21;100.00
10518;BME280;5307;42.548;22.968;2023-05-12T08:24:47;94142.63;;;10.34;100.00
10518;BME280;5307;42.548;22.968;2023-05-12T08:27:14;94146.97;;;10.44;100.00
10518;BME280;5307;42.548;22.968;2023-05-12T08:29:41;94157.13;;;10.18;100.00
10518;BME280;5307;42.548;22.968;2023-05-12T08:32:08;94149.16;;;10.36;100.00
10518;BME280;5307;42.548;22.968;2023-05-12T08:34:34;94149.41;;;10.29;100.00
10518;BME280;5307;42.548;22.968;2023-05-12T08:37:03;94152.34;;;10.35;100.00
10518;BME280;5307;42.548;22.968;2023-05-12T08:39:30;94152.97;;;10.52;100.00
10518;BME280;5307;42.548;22.968;2023-05-12T08:42:11;94144.25;;;10.44;100.00
10518;BME280;5307;42.548;22.968;2023-05-12T08:44:41;94146.09;;;10.94;100.00
10518;BME280;5307;42.548;22.968;2023-05-12T08:47:10;94145.91;;;10.89;100.00
10518;BME280;5307;42.548;22.968;2023-05-12T08:49:38;94147.00;;;10.79;100.00
10518;BME280;5307;42.548;22.968;2023-05-12T08:52:07;94142.75;;;10.78;100.00
10518;BME280;5307;42.548;22.968;2023-05-12T08:54:34;94151.28;;;11.14;100.00
10518;BME280;5307;42.548;22.968;2023-05-12T08:57:03;94145.00;;;10.92;100.00
10518;BME280;5307;42.548;22.968;2023-05-12T08:59:30;94136.50;;;11.12;100.00
10518;BME280;5307;42.548;22.968;2023-05-12T09:01:57;94141.03;;;11.49;100.00
10518;BME280;5307;42.548;22.968;2023-05-12T09:04:26;94130.88;;;11.28;100.00
10518;BME280;5307;42.548;22.968;2023-05-12T09:06:53;94135.66;;;11.58;100.00
10518;BME280;5307;42.548;22.968;2023-05-12T09:09:22;94145.94;;;11.76;100.00
10518;BME280;5307;42.548;22.968;2023-05-12T09:11:51;94140.88;;;11.44;100.00
10518;BME280;5307;42.548;22.968;2023-05-12T09:14:23;94132.97;;;11.46;100.00
10518;BME280;5307;42.548;22.968;2023-05-12T09:16:56;94132.34;;;11.42;100.00
10518;BME280;5307;42.548;22.968;2023-05-12T09:19:25;94137.66;;;11.67;100.00
10518;BME280;5307;42.548;22.968;2023-05-12T09:21:52;94132.47;;;11.60;100.00
10518;BME280;5307;42.548;22.968;2023-05-12T09:24:19;94132.97;;;11.24;100.00
10518;BME280;5307;42.548;22.968;2023-05-12T09:26:49;94117.19;;;11.50;100.00
10518;BME280;5307;42.548;22.968;2023-05-12T09:29:16;94130.41;;;11.51;100.00
10518;BME280;5307;42.548;22.968;2023-05-12T09:31:48;94128.09;;;11.41;100.00
10518;BME280;5307;42.548;22.968;2023-05-12T09:34:16;94138.69;;;11.39;100.00
10518;BME280;5307;42.548;22.968;2023-05-12T09:36:43;94140.44;;;12.29;100.00
10518;BME280;5307;42.548;22.968;2023-05-12T09:39:11;94142.81;;;12.18;100.00
10518;BME280;5307;42.548;22.968;2023-05-12T09:41:39;94139.91;;;12.12;100.00
10518;BME280;5307;42.548;22.968;2023-05-12T09:44:09;94140.31;;;12.02;100.00
10518;BME280;5307;42.548;22.968;2023-05-12T09:46:36;94147.69;;;11.83;100.00
10518;BME280;5307;42.548;22.968;2023-05-12T09:49:04;94137.84;;;11.95;100.00
10518;BME280;5307;42.548;22.968;2023-05-12T09:51:31;94145.59;;;11.96;100.00
10518;BME280;5307;42.548;22.968;2023-05-12T09:53:58;94145.38;;;11.81;100.00
10518;BME280;5307;42.548;22.968;2023-05-12T09:56:26;94128.28;;;11.77;100.00
10518;BME280;5307;42.548;22.968;2023-05-12T09:58:55;94142.69;;;11.91;100.00
10518;BME280;5307;42.548;22.968;2023-05-12T10:01:25;94144.94;;;11.83;100.00
10518;BME280;5307;42.548;22.968;2023-05-12T10:03:54;94129.91;;;11.66;100.00
10518;BME280;5307;42.548;22.968;2023-05-12T10:06:24;94137.28;;;11.34;100.00
10518;BME280;5307;42.548;22.968;2023-05-12T10:08:58;94131.19;;;11.52;100.00
10518;BME280;5307;42.548;22.968;2023-05-12T10:11:27;94128.75;;;11.54;100.00
10518;BME280;5307;42.548;22.968;2023-05-12T10:13:55;94133.47;;;11.75;100.00
10518;BME280;5307;42.548;22.968;2023-05-12T10:16:25;94130.53;;;11.92;100.00
10518;BME280;5307;42.548;22.968;2023-05-12T10:18:54;94133.94;;;12.05;100.00
10518;BME280;5307;42.548;22.968;2023-05-12T10:21:20;94121.25;;;12.29;100.00
10518;BME280;5307;42.548;22.968;2023-05-12T10:23:48;94119.50;;;12.54;100.00
10518;BME280;5307;42.548;22.968;2023-05-12T10:26:16;94120.91;;;12.76;100.00
10518;BME280;5307;42.548;22.968;2023-05-12T10:28:44;94121.13;;;13.19;100.00
10518;BME280;5307;42.548;22.968;2023-05-12T10:31:13;94121.69;;;13.50;100.00
10518;BME280;5307;42.548;22.968;2023-05-12T10:33:41;94116.53;;;13.43;100.00
10518;BME280;5307;42.548;22.968;2023-05-12T10:36:16;94095.94;;;12.93;100.00
10518;BME280;5307;42.548;22.968;2023-05-12T10:38:46;94114.13;;;13.27;100.00
10518;BME280;5307;42.548;22.968;2023-05-12T10:41:14;94120.81;;;13.26;100.00
10518;BME280;5307;42.548;22.968;2023-05-12T10:43:46;94112.22;;;13.70;100.00
10518;BME280;5307;42.548;22.968;2023-05-12T10:46:15;94107.22;;;13.68;100.00
10518;BME280;5307;42.548;22.968;2023-05-12T10:48:52;94107.38;;;13.37;97.37
10518;BME280;5307;42.548;22.968;2023-05-12T10:51:22;94109.13;;;13.95;98.99
10518;BME280;5307;42.548;22.968;2023-05-12T10:53:52;94112.47;;;13.99;98.06
10518;BME280;5307;42.548;22.968;2023-05-12T10:56:24;94091.03;;;13.70;94.16
10518;BME280;5307;42.548;22.968;2023-05-12T10:59:09;94102.78;;;13.61;95.67
10518;BME280;5307;42.548;22.968;2023-05-12T11:01:36;94100.59;;;14.26;96.61
10518;BME280;5307;42.548;22.968;2023-05-12T11:04:12;94113.31;;;14.14;96.83
10518;BME280;5307;42.548;22.968;2023-05-12T11:06:40;94106.97;;;13.99;94.89
10518;BME280;5307;42.548;22.968;2023-05-12T11:09:08;94101.88;;;14.07;94.22
10518;BME280;5307;42.548;22.968;2023-05-12T11:11:36;94103.63;;;13.95;93.96
10518;BME280;5307;42.548;22.968;2023-05-12T11:14:03;94111.59;;;13.84;95.56
10518;BME280;5307;42.548;22.968;2023-05-12T11:16:30;94102.75;;;13.80;95.78
10518;BME280;5307;42.548;22.968;2023-05-12T11:19:01;94106.78;;;14.12;97.33
10518;BME280;5307;42.548;22.968;2023-05-12T11:21:31;94095.97;;;13.99;96.07
10518;BME280;5307;42.548;22.968;2023-05-12T11:23:58;94109.00;;;13.80;97.65
10518;BME280;5307;42.548;22.968;2023-05-12T11:26:25;94113.63;;;13.56;97.35
10518;BME280;5307;42.548;22.968;2023-05-12T11:28:52;94110.28;;;13.33;96.58
10518;BME280;5307;42.548;22.968;2023-05-12T11:31:20;94122.31;;;13.18;96.96
10518;BME280;5307;42.548;22.968;2023-05-12T11:33:48;94121.72;;;13.41;97.20
10518;BME280;5307;42.548;22.968;2023-05-12T11:36:15;94124.75;;;13.16;98.33
10518;BME280;5307;42.548;22.968;2023-05-12T11:38:49;94122.31;;;13.36;99.33
10518;BME280;5307;42.548;22.968;2023-05-12T11:41:22;94110.59;;;13.45;97.79
10518;BME280;5307;42.548;22.968;2023-05-12T11:43:49;94121.88;;;13.56;98.72
10518;BME280;5307;42.548;22.968;2023-05-12T11:46:23;94118.69;;;13.30;98.69
10518;BME280;5307;42.548;22.968;2023-05-12T11:48:54;94111.34;;;13.36;99.27
10518;BME280;5307;42.548;22.968;2023-05-12T11:51:21;94115.75;;;13.61;98.13
10518;BME280;5307;42.548;22.968;2023-05-12T11:53:50;94106.00;;;13.60;95.53
10518;BME280;5307;42.548;22.968;2023-05-12T11:56:18;94113.13;;;13.76;97.41
10518;BME280;5307;42.548;22.968;2023-05-12T11:58:53;94113.00;;;13.61;95.81
10518;BME280;5307;42.548;22.968;2023-05-12T12:01:20;94107.84;;;13.54;94.75
10518;BME280;5307;42.548;22.968;2023-05-12T12:03:49;94114.41;;;14.08;98.16
10518;BME280;5307;42.548;22.968;2023-05-12T12:06:16;94112.38;;;14.17;97.17
10518;BME280;5307;42.548;22.968;2023-05-12T12:08:53;94113.31;;;13.63;94.63
10518;BME280;5307;42.548;22.968;2023-05-12T12:11:21;94111.13;;;13.85;94.35
10518;BME280;5307;42.548;22.968;2023-05-12T12:13:49;94103.84;;;14.15;94.87
10518;BME280;5307;42.548;22.968;2023-05-12T12:16:22;94103.94;;;13.88;94.57
10518;BME280;5307;42.548;22.968;2023-05-12T12:18:49;94094.53;;;13.80;93.17
10518;BME280;5307;42.548;22.968;2023-05-12T12:21:16;94093.31;;;13.72;91.13
10518;BME280;5307;42.548;22.968;2023-05-12T12:23:43;94095.44;;;13.77;91.63
10518;BME280;5307;42.548;22.968;2023-05-12T12:26:11;94090.56;;;14.23;91.27
10518;BME280;5307;42.548;22.968;2023-05-12T12:28:41;94092.09;;;14.15;89.46
10518;BME280;5307;42.548;22.968;2023-05-12T12:31:07;94082.84;;;14.03;90.48
10518;BME280;5307;42.548;22.968;2023-05-12T12:33:34;94081.50;;;14.32;90.83
10518;BME280;5307;42.548;22.968;2023-05-12T12:36:01;94066.22;;;13.55;88.80
10518;BME280;5307;42.548;22.968;2023-05-12T12:38:29;94083.31;;;13.92;89.18
10518;BME280;5307;42.548;22.968;2023-05-12T12:40:56;94084.06;;;14.02;87.68
10518;BME280;5307;42.548;22.968;2023-05-12T12:43:24;94079.78;;;14.10;87.23
10518;BME280;5307;42.548;22.968;2023-05-12T12:45:51;94080.06;;;14.45;88.07
10518;BME280;5307;42.548;22.968;2023-05-12T12:48:19;94080.78;;;14.22;86.52
10518;BME280;5307;42.548;22.968;2023-05-12T12:50:46;94077.06;;;14.67;89.58
10518;BME280;5307;42.548;22.968;2023-05-12T12:53:12;94084.59;;;14.58;87.51
10518;BME280;5307;42.548;22.968;2023-05-12T12:55:39;94078.91;;;13.95;86.80
10518;BME280;5307;42.548;22.968;2023-05-12T12:58:06;94082.34;;;13.62;87.54
10518;BME280;5307;42.548;22.968;2023-05-12T13:00:35;94079.16;;;13.64;89.02